sensor_id;sensor_type;location;lat;lon;timestamp;temperature;humidity
65559;DHT22;52203;51.998;5.140;2023-08-21T00:00:42;11.89;118.99
65559;DHT22;52203;51.998;5.140;2023-08-21T00:03:08;11.88;118.99
65559;DHT22;52203;51.998;5.140;2023-08-21T00:05:34;11.86;118.99
65559;DHT22;52203;51.998;5.140;2023-08-21T00:07:59;11.83;118.99
65559;DHT22;52203;51.998;5.140;2023-08-21T00:10:25;11.82;118.99
65559;DHT22;52203;51.998;5.140;2023-08-21T00:12:50;11.81;118.99
65559;DHT22;52203;51.998;5.140;2023-08-21T00:15:16;11.76;118.99
65559;DHT22;52203;51.998;5.140;2023-08-21T00:17:41;11.75;118.99
65559;DHT22;52203;51.998;5.140;2023-08-21T00:20:07;11.75;118.99
65559;DHT22;52203;51.998;5.140;2023-08-21T00:22:35;11.77;118.99
65559;DHT22;52203;51.998;5.140;2023-08-21T00:25:01;11.86;118.99
65559;DHT22;52203;51.998;5.140;2023-08-21T00:27:27;11.87;118.99
65559;DHT22;52203;51.998;5.140;2023-08-21T00:29:52;11.89;118.99
65559;DHT22;52203;51.998;5.140;2023-08-21T00:32:18;11.93;118.99
65559;DHT22;52203;51.998;5.140;2023-08-21T00:34:43;11.91;118.99
65559;DHT22;52203;51.998;5.140;2023-08-21T00:37:09;11.93;118.99
65559;DHT22;52203;51.998;5.140;2023-08-21T00:39:36;11.96;118.99
65559;DHT22;52203;51.998;5.140;2023-08-21T00:42:01;11.97;118.99
65559;DHT22;52203;51.998;5.140;2023-08-21T00:44:27;12.00;118.99
65559;DHT22;52203;51.998;5.140;2023-08-21T00:46:52;12.02;118.99
65559;DHT22;52203;51.998;5.140;2023-08-21T00:49:19;12.05;118.99
65559;DHT22;52203;51.998;5.140;2023-08-21T00:51:45;12.07;118.99
65559;DHT22;52203;51.998;5.140;2023-08-21T00:54:11;12.11;118.99
65559;DHT22;52203;51.998;5.140;2023-08-21T00:56:37;12.13;118.99
65559;DHT22;52203;51.998;5.140;2023-08-21T00:59:03;12.15;118.99
65559;DHT22;52203;51.998;5.140;2023-08-21T01:01:29;12.17;118.99
65559;DHT22;52203;51.998;5.140;2023-08-21T01:03:55;12.15;118.99
65559;DHT22;52203;51.998;5.140;2023-08-21T01:06:21;12.14;118.99
65559;DHT22;52203;51.998;5.140;2023-08-21T01:08:54;12.08;118.99
65559;DHT22;52203;51.998;5.140;2023-08-21T01:14:09;12.01;118.99
65559;DHT22;52203;51.998;5.140;2023-08-21T01:16:39;11.98;118.99
65559;DHT22;52203;51.998;5.140;2023-08-21T01:19:10;11.94;118.99
65559;DHT22;52203;51.998;5.140;2023-08-21T01:21:40;11.93;118.99
65559;DHT22;52203;51.998;5.140;2023-08-21T01:24:05;11.92;118.99
65559;DHT22;52203;51.998;5.140;2023-08-21T01:26:31;11.89;118.99
65559;DHT22;52203;51.998;5.140;2023-08-21T01:28:57;11.87;118.99
65559;DHT22;52203;51.998;5.140;2023-08-21T01:31:31;11.83;118.99
65559;DHT22;52203;51.998;5.140;2023-08-21T01:34:01;11.82;118.99
65559;DHT22;52203;51.998;5.140;2023-08-21T01:36:30;11.75;118.99
65559;DHT22;52203;51.998;5.140;2023-08-21T01:38:56;11.73;118.99
65559;DHT22;52203;51.998;5.140;2023-08-21T01:41:25;11.70;118.99
65559;DHT22;52203;51.998;5.140;2023-08-21T01:43:51;11.68;118.99
65559;DHT22;52203;51.998;5.140;2023-08-21T01:46:17;11.68;118.99
65559;DHT22;52203;51.998;5.140;2023-08-21T01:48:42;11.67;118.99
65559;DHT22;52203;51.998;5.140;2023-08-21T01:51:08;11.68;118.99
65559;DHT22;52203;51.998;5.140;2023-08-21T01:53:34;11.70;118.99
65559;DHT22;52203;51.998;5.140;2023-08-21T01:55:59;11.68;118.99
65559;DHT22;52203;51.998;5.140;2023-08-21T01:58:25;11.69;118.99
65559;DHT22;52203;51.998;5.140;2023-08-21T02:00:50;11.69;118.99
65559;DHT22;52203;51.998;5.140;2023-08-21T02:03:16;11.70;118.99
65559;DHT22;52203;51.998;5.140;2023-08-21T02:05:41;11.71;118.99
65559;DHT22;52203;51.998;5.140;2023-08-21T02:08:12;11.77;118.99
65559;DHT22;52203;51.998;5.140;2023-08-21T02:10:50;11.81;118.99
65559;DHT22;52203;51.998;5.140;2023-08-21T02:13:16;11.85;118.99
65559;DHT22;52203;51.998;5.140;2023-08-21T02:15:41;11.92;118.99
65559;DHT22;52203;51.998;5.140;2023-08-21T02:18:07;12.05;118.99
65559;DHT22;52203;51.998;5.140;2023-08-21T02:20:32;12.03;118.99
65559;DHT22;52203;51.998;5.140;2023-08-21T02:22:58;12.06;118.99
65559;DHT22;52203;51.998;5.140;2023-08-21T02:25:23;12.12;118.99
65559;DHT22;52203;51.998;5.140;2023-08-21T02:27:49;12.16;118.99
65559;DHT22;52203;51.998;5.140;2023-08-21T02:30:15;12.20;118.99
65559;DHT22;52203;51.998;5.140;2023-08-21T02:32:40;12.21;118.99
65559;DHT22;52203;51.998;5.140;2023-08-21T02:35:07;12.21;118.99
65559;DHT22;52203;51.998;5.140;2023-08-21T02:37:33;12.18;118.99
65559;DHT22;52203;51.998;5.140;2023-08-21T02:39:59;12.20;118.99
65559;DHT22;52203;51.998;5.140;2023-08-21T02:42:25;12.19;118.99
65559;DHT22;52203;51.998;5.140;2023-08-21T02:44:50;12.18;118.99
65559;DHT22;52203;51.998;5.140;2023-08-21T02:47:16;12.17;118.99
65559;DHT22;52203;51.998;5.140;2023-08-21T02:49:42;12.16;118.99
65559;DHT22;52203;51.998;5.140;2023-08-21T02:52:07;12.16;118.99
65559;DHT22;52203;51.998;5.140;2023-08-21T02:54:33;12.12;118.99
65559;DHT22;52203;51.998;5.140;2023-08-21T02:56:59;12.07;118.99
65559;DHT22;52203;51.998;5.140;2023-08-21T02:59:24;12.13;118.99
65559;DHT22;52203;51.998;5.140;2023-08-21T03:01:50;11.99;118.99
65559;DHT22;52203;51.998;5.140;2023-08-21T03:04:15;11.98;118.99
65559;DHT22;52203;51.998;5.140;2023-08-21T03:06:41;11.94;118.99
65559;DHT22;52203;51.998;5.140;2023-08-21T03:09:06;11.97;118.99
65559;DHT22;52203;51.998;5.140;2023-08-21T03:11:32;12.06;118.99
65559;DHT22;52203;51.998;5.140;2023-08-21T03:13:58;12.00;118.99
65559;DHT22;52203;51.998;5.140;2023-08-21T03:16:23;12.00;118.99
65559;DHT22;52203;51.998;5.140;2023-08-21T03:18:59;12.01;118.99
65559;DHT22;52203;51.998;5.140;2023-08-21T03:21:26;12.04;118.99
65559;DHT22;52203;51.998;5.140;2023-08-21T03:23:55;12.05;118.99
65559;DHT22;52203;51.998;5.140;2023-08-21T03:26:20;12.06;118.99
65559;DHT22;52203;51.998;5.140;2023-08-21T03:28:46;12.00;118.99
65559;DHT22;52203;51.998;5.140;2023-08-21T03:31:11;11.98;118.99
65559;DHT22;52203;51.998;5.140;2023-08-21T03:33:37;12.02;118.99
65559;DHT22;52203;51.998;5.140;2023-08-21T03:36:03;12.05;118.99
65559;DHT22;52203;51.998;5.140;2023-08-21T03:38:29;11.98;118.99
65559;DHT22;52203;51.998;5.140;2023-08-21T03:40:54;12.11;118.99
65559;DHT22;52203;51.998;5.140;2023-08-21T03:43:20;12.00;118.99
65559;DHT22;52203;51.998;5.140;2023-08-21T03:45:45;12.04;118.99
65559;DHT22;52203;51.998;5.140;2023-08-21T03:48:11;12.07;118.99
65559;DHT22;52203;51.998;5.140;2023-08-21T03:50:36;12.16;118.99
65559;DHT22;52203;51.998;5.140;2023-08-21T03:53:02;12.01;118.99
65559;DHT22;52203;51.998;5.140;2023-08-21T03:55:27;12.10;118.99
65559;DHT22;52203;51.998;5.140;2023-08-21T03:57:53;12.03;118.99
65559;DHT22;52203;51.998;5.140;2023-08-21T04:00:18;11.97;118.99
65559;DHT22;52203;51.998;5.140;2023-08-21T04:02:44;11.93;118.99
65559;DHT22;52203;51.998;5.140;2023-08-21T04:05:10;11.87;118.99
65559;DHT22;52203;51.998;5.140;2023-08-21T04:07:37;11.88;118.99
65559;DHT22;52203;51.998;5.140;2023-08-21T04:10:02;11.89;118.99
65559;DHT22;52203;51.998;5.140;2023-08-21T04:12:28;11.89;118.99
65559;DHT22;52203;51.998;5.140;2023-08-21T04:14:54;11.92;118.99
65559;DHT22;52203;51.998;5.140;2023-08-21T04:17:23;11.96;118.99
65559;DHT22;52203;51.998;5.140;2023-08-21T04:19:50;12.01;118.99
65559;DHT22;52203;51.998;5.140;2023-08-21T04:22:15;12.03;118.99
65559;DHT22;52203;51.998;5.140;2023-08-21T04:24:42;12.06;118.99
65559;DHT22;52203;51.998;5.140;2023-08-21T04:27:07;12.13;118.99
65559;DHT22;52203;51.998;5.140;2023-08-21T04:29:35;12.10;118.99
65559;DHT22;52203;51.998;5.140;2023-08-21T04:32:01;12.03;118.99
65559;DHT22;52203;51.998;5.140;2023-08-21T04:34:27;12.02;118.99
65559;DHT22;52203;51.998;5.140;2023-08-21T04:36:52;12.05;118.99
65559;DHT22;52203;51.998;5.140;2023-08-21T04:39:18;12.10;118.99
65559;DHT22;52203;51.998;5.140;2023-08-21T04:41:44;12.08;118.99
65559;DHT22;52203;51.998;5.140;2023-08-21T04:44:09;12.10;118.99
65559;DHT22;52203;51.998;5.140;2023-08-21T04:46:35;12.12;118.99
65559;DHT22;52203;51.998;5.140;2023-08-21T04:49:01;12.11;118.99
65559;DHT22;52203;51.998;5.140;2023-08-21T04:51:26;12.04;118.99
65559;DHT22;52203;51.998;5.140;2023-08-21T04:53:52;12.03;118.99
65559;DHT22;52203;51.998;5.140;2023-08-21T04:56:17;12.05;118.99
65559;DHT22;52203;51.998;5.140;2023-08-21T04:58:43;12.02;118.99
65559;DHT22;52203;51.998;5.140;2023-08-21T05:01:08;12.02;118.99
65559;DHT22;52203;51.998;5.140;2023-08-21T05:03:34;12.00;118.99
65559;DHT22;52203;51.998;5.140;2023-08-21T05:06:00;11.98;118.99
65559;DHT22;52203;51.998;5.140;2023-08-21T05:08:26;11.96;118.99
65559;DHT22;52203;51.998;5.140;2023-08-21T05:10:58;12.00;118.99
65559;DHT22;52203;51.998;5.140;2023-08-21T05:13:24;12.01;118.99
65559;DHT22;52203;51.998;5.140;2023-08-21T05:15:55;11.96;118.99
65559;DHT22;52203;51.998;5.140;2023-08-21T05:18:21;11.97;118.99
65559;DHT22;52203;51.998;5.140;2023-08-21T05:20:47;12.00;118.99
65559;DHT22;52203;51.998;5.140;2023-08-21T05:23:14;12.04;118.99
65559;DHT22;52203;51.998;5.140;2023-08-21T05:25:39;12.12;118.99
65559;DHT22;52203;51.998;5.140;2023-08-21T05:28:06;12.29;118.99
65559;DHT22;52203;51.998;5.140;2023-08-21T05:30:32;12.37;118.99
65559;DHT22;52203;51.998;5.140;2023-08-21T05:32:58;12.52;118.99
65559;DHT22;52203;51.998;5.140;2023-08-21T05:35:23;12.70;118.99
65559;DHT22;52203;51.998;5.140;2023-08-21T05:37:49;12.75;118.99
65559;DHT22;52203;51.998;5.140;2023-08-21T05:40:14;12.85;118.99
65559;DHT22;52203;51.998;5.140;2023-08-21T05:42:40;12.92;118.99
65559;DHT22;52203;51.998;5.140;2023-08-21T05:45:06;12.97;118.99
65559;DHT22;52203;51.998;5.140;2023-08-21T05:47:31;13.08;118.99
65559;DHT22;52203;51.998;5.140;2023-08-21T05:49:57;13.16;118.99
65559;DHT22;52203;51.998;5.140;2023-08-21T05:52:22;13.33;118.99
65559;DHT22;52203;51.998;5.140;2023-08-21T05:54:48;13.04;118.99
65559;DHT22;52203;51.998;5.140;2023-08-21T05:57:14;13.25;118.99
65559;DHT22;52203;51.998;5.140;2023-08-21T05:59:46;13.24;118.99
65559;DHT22;52203;51.998;5.140;2023-08-21T06:02:13;13.61;118.99
65559;DHT22;52203;51.998;5.140;2023-08-21T06:04:41;13.39;118.99
65559;DHT22;52203;51.998;5.140;2023-08-21T06:07:08;13.38;118.99
65559;DHT22;52203;51.998;5.140;2023-08-21T06:09:34;13.88;118.99
65559;DHT22;52203;51.998;5.140;2023-08-21T06:12:01;13.59;118.99
65559;DHT22;52203;51.998;5.140;2023-08-21T06:14:27;13.40;118.99
65559;DHT22;52203;51.998;5.140;2023-08-21T06:17:02;13.64;118.99
65559;DHT22;52203;51.998;5.140;2023-08-21T06:19:28;13.98;118.99
65559;DHT22;52203;51.998;5.140;2023-08-21T06:21:55;14.30;118.99
65559;DHT22;52203;51.998;5.140;2023-08-21T06:24:21;15.25;118.99
65559;DHT22;52203;51.998;5.140;2023-08-21T06:26:47;15.83;118.99
65559;DHT22;52203;51.998;5.140;2023-08-21T06:29:12;16.44;118.99
65559;DHT22;52203;51.998;5.140;2023-08-21T06:31:38;16.77;118.99
65559;DHT22;52203;51.998;5.140;2023-08-21T06:34:04;17.20;118.99
65559;DHT22;52203;51.998;5.140;2023-08-21T06:36:29;17.61;118.99
65559;DHT22;52203;51.998;5.140;2023-08-21T06:38:55;18.24;118.99
65559;DHT22;52203;51.998;5.140;2023-08-21T06:41:21;18.50;118.99
65559;DHT22;52203;51.998;5.140;2023-08-21T06:43:46;18.86;118.99
65559;DHT22;52203;51.998;5.140;2023-08-21T06:46:12;19.12;118.99
65559;DHT22;52203;51.998;5.140;2023-08-21T06:48:39;19.01;118.99
65559;DHT22;52203;51.998;5.140;2023-08-21T06:51:06;18.87;118.99
65559;DHT22;52203;51.998;5.140;2023-08-21T06:53:32;18.74;118.99
65559;DHT22;52203;51.998;5.140;2023-08-21T06:55:57;18.74;118.99
65559;DHT22;52203;51.998;5.140;2023-08-21T06:58:23;19.07;118.99
65559;DHT22;52203;51.998;5.140;2023-08-21T07:00:48;19.45;118.99
65559;DHT22;52203;51.998;5.140;2023-08-21T07:03:14;19.90;118.99
65559;DHT22;52203;51.998;5.140;2023-08-21T07:05:39;19.98;118.99
65559;DHT22;52203;51.998;5.140;2023-08-21T07:08:05;19.85;118.99
65559;DHT22;52203;51.998;5.140;2023-08-21T07:10:36;19.71;118.99
65559;DHT22;52203;51.998;5.140;2023-08-21T07:13:02;19.50;118.99
65559;DHT22;52203;51.998;5.140;2023-08-21T07:15:29;19.10;118.99
65559;DHT22;52203;51.998;5.140;2023-08-21T07:17:54;18.83;118.99
65559;DHT22;52203;51.998;5.140;2023-08-21T07:20:21;18.54;118.99
65559;DHT22;52203;51.998;5.140;2023-08-21T07:22:47;18.25;118.99
65559;DHT22;52203;51.998;5.140;2023-08-21T07:25:12;17.90;118.99
65559;DHT22;52203;51.998;5.140;2023-08-21T07:27:38;17.63;118.99
65559;DHT22;52203;51.998;5.140;2023-08-21T07:30:06;17.78;118.99
65559;DHT22;52203;51.998;5.140;2023-08-21T07:32:32;17.46;118.99
65559;DHT22;52203;51.998;5.140;2023-08-21T07:34:57;17.36;118.99
65559;DHT22;52203;51.998;5.140;2023-08-21T07:37:23;17.44;118.99
65559;DHT22;52203;51.998;5.140;2023-08-21T07:39:48;17.47;118.99
65559;DHT22;52203;51.998;5.140;2023-08-21T07:42:14;17.79;118.99
65559;DHT22;52203;51.998;5.140;2023-08-21T07:44:39;18.10;118.99
65559;DHT22;52203;51.998;5.140;2023-08-21T07:47:05;18.21;118.99
65559;DHT22;52203;51.998;5.140;2023-08-21T07:49:32;18.70;118.99
65559;DHT22;52203;51.998;5.140;2023-08-21T07:51:58;19.27;118.99
65559;DHT22;52203;51.998;5.140;2023-08-21T07:54:23;19.43;118.99
65559;DHT22;52203;51.998;5.140;2023-08-21T07:56:50;19.57;118.99
65559;DHT22;52203;51.998;5.140;2023-08-21T07:59:16;19.42;118.99
65559;DHT22;52203;51.998;5.140;2023-08-21T08:01:41;19.57;118.99
65559;DHT22;52203;51.998;5.140;2023-08-21T08:04:07;20.07;118.99
65559;DHT22;52203;51.998;5.140;2023-08-21T08:06:33;20.72;118.99
65559;DHT22;52203;51.998;5.140;2023-08-21T08:08:59;21.22;118.99
65559;DHT22;52203;51.998;5.140;2023-08-21T08:11:24;21.65;118.99
65559;DHT22;52203;51.998;5.140;2023-08-21T08:13:50;22.06;118.99
65559;DHT22;52203;51.998;5.140;2023-08-21T08:16:16;22.17;118.99
65559;DHT22;52203;51.998;5.140;2023-08-21T08:18:42;22.36;118.99
65559;DHT22;52203;51.998;5.140;2023-08-21T08:21:07;22.20;118.99
65559;DHT22;52203;51.998;5.140;2023-08-21T08:23:34;22.09;118.99
65559;DHT22;52203;51.998;5.140;2023-08-21T08:25:59;21.85;118.99
65559;DHT22;52203;51.998;5.140;2023-08-21T08:28:25;21.31;118.99
65559;DHT22;52203;51.998;5.140;2023-08-21T08:30:51;20.79;118.99
65559;DHT22;52203;51.998;5.140;2023-08-21T08:33:16;20.93;118.99
65559;DHT22;52203;51.998;5.140;2023-08-21T08:35:43;20.84;118.99
65559;DHT22;52203;51.998;5.140;2023-08-21T08:38:08;20.79;118.99
65559;DHT22;52203;51.998;5.140;2023-08-21T08:40:39;20.74;118.99
65559;DHT22;52203;51.998;5.140;2023-08-21T08:43:07;20.73;118.99
65559;DHT22;52203;51.998;5.140;2023-08-21T08:45:34;20.76;118.99
65559;DHT22;52203;51.998;5.140;2023-08-21T08:48:00;20.76;118.99
65559;DHT22;52203;51.998;5.140;2023-08-21T08:50:29;20.87;118.99
65559;DHT22;52203;51.998;5.140;2023-08-21T08:52:55;20.81;118.99
65559;DHT22;52203;51.998;5.140;2023-08-21T08:55:22;20.71;118.99
65559;DHT22;52203;51.998;5.140;2023-08-21T08:57:48;20.71;118.99
65559;DHT22;52203;51.998;5.140;2023-08-21T09:00:14;20.75;118.99
65559;DHT22;52203;51.998;5.140;2023-08-21T09:02:39;20.71;118.99
65559;DHT22;52203;51.998;5.140;2023-08-21T09:05:05;20.63;118.99
65559;DHT22;52203;51.998;5.140;2023-08-21T09:07:32;20.80;118.99
65559;DHT22;52203;51.998;5.140;2023-08-21T09:09:57;20.68;118.99
65559;DHT22;52203;51.998;5.140;2023-08-21T09:12:23;20.72;118.99
65559;DHT22;52203;51.998;5.140;2023-08-21T09:14:48;20.80;118.99
65559;DHT22;52203;51.998;5.140;2023-08-21T09:17:15;21.01;118.99
65559;DHT22;52203;51.998;5.140;2023-08-21T09:19:41;21.17;118.99
65559;DHT22;52203;51.998;5.140;2023-08-21T09:22:12;21.09;118.99
65559;DHT22;52203;51.998;5.140;2023-08-21T09:24:38;21.04;118.99
65559;DHT22;52203;51.998;5.140;2023-08-21T09:27:13;20.99;118.99
65559;DHT22;52203;51.998;5.140;2023-08-21T09:29:39;21.25;118.99
65559;DHT22;52203;51.998;5.140;2023-08-21T09:32:08;21.22;118.99
65559;DHT22;52203;51.998;5.140;2023-08-21T09:34:35;21.11;118.99
65559;DHT22;52203;51.998;5.140;2023-08-21T09:37:04;21.25;118.99
65559;DHT22;52203;51.998;5.140;2023-08-21T09:39:37;21.34;118.99
65559;DHT22;52203;51.998;5.140;2023-08-21T09:42:08;21.44;118.99
65559;DHT22;52203;51.998;5.140;2023-08-21T09:44:42;21.44;118.99
65559;DHT22;52203;51.998;5.140;2023-08-21T09:47:11;21.54;118.99
65559;DHT22;52203;51.998;5.140;2023-08-21T09:49:38;21.54;118.99
65559;DHT22;52203;51.998;5.140;2023-08-21T09:52:08;21.52;118.99
65559;DHT22;52203;51.998;5.140;2023-08-21T09:54:36;21.72;118.99
65559;DHT22;52203;51.998;5.140;2023-08-21T09:57:03;21.67;118.99
65559;DHT22;52203;51.998;5.140;2023-08-21T09:59:32;21.46;118.99
65559;DHT22;52203;51.998;5.140;2023-08-21T10:01:59;21.65;118.99
65559;DHT22;52203;51.998;5.140;2023-08-21T10:04:27;21.60;118.99
65559;DHT22;52203;51.998;5.140;2023-08-21T10:06:54;21.76;118.99
65559;DHT22;52203;51.998;5.140;2023-08-21T10:09:21;21.93;118.99
65559;DHT22;52203;51.998;5.140;2023-08-21T10:11:48;21.91;118.99
65559;DHT22;52203;51.998;5.140;2023-08-21T10:14:15;21.51;118.99
65559;DHT22;52203;51.998;5.140;2023-08-21T10:16:41;21.70;118.99
65559;DHT22;52203;51.998;5.140;2023-08-21T10:19:07;21.84;118.99
65559;DHT22;52203;51.998;5.140;2023-08-21T10:21:36;21.85;118.99
65559;DHT22;52203;51.998;5.140;2023-08-21T10:24:02;21.85;118.99
65559;DHT22;52203;51.998;5.140;2023-08-21T10:26:28;21.87;118.99
65559;DHT22;52203;51.998;5.140;2023-08-21T10:28:56;21.67;118.99
65559;DHT22;52203;51.998;5.140;2023-08-21T10:31:37;21.37;118.99
65559;DHT22;52203;51.998;5.140;2023-08-21T10:34:09;21.39;118.99
65559;DHT22;52203;51.998;5.140;2023-08-21T10:39:29;21.84;118.99
65559;DHT22;52203;51.998;5.140;2023-08-21T10:41:58;21.78;118.99
65559;DHT22;52203;51.998;5.140;2023-08-21T10:44:46;21.57;118.99
65559;DHT22;52203;51.998;5.140;2023-08-21T10:49:57;21.37;118.99
65559;DHT22;52203;51.998;5.140;2023-08-21T10:52:26;21.42;118.99
65559;DHT22;52203;51.998;5.140;2023-08-21T10:54:55;21.52;118.99
65559;DHT22;52203;51.998;5.140;2023-08-21T10:57:25;21.78;118.99
65559;DHT22;52203;51.998;5.140;2023-08-21T11:00:01;21.77;118.99
65559;DHT22;52203;51.998;5.140;2023-08-21T11:02:31;21.72;118.99
65559;DHT22;52203;51.998;5.140;2023-08-21T11:04:58;21.65;118.99
65559;DHT22;52203;51.998;5.140;2023-08-21T11:07:25;21.61;118.99
65559;DHT22;52203;51.998;5.140;2023-08-21T11:09:51;21.52;118.99
65559;DHT22;52203;51.998;5.140;2023-08-21T11:12:22;21.46;118.99
65559;DHT22;52203;51.998;5.140;2023-08-21T11:14:47;21.39;118.99
65559;DHT22;52203;51.998;5.140;2023-08-21T11:17:13;21.50;118.99
65559;DHT22;52203;51.998;5.140;2023-08-21T11:19:41;21.45;118.99
65559;DHT22;52203;51.998;5.140;2023-08-21T11:22:07;21.43;118.99
65559;DHT22;52203;51.998;5.140;2023-08-21T11:24:47;21.58;118.99
65559;DHT22;52203;51.998;5.140;2023-08-21T11:27:14;21.66;118.99
65559;DHT22;52203;51.998;5.140;2023-08-21T11:29:44;21.59;118.99
65559;DHT22;52203;51.998;5.140;2023-08-21T11:32:26;21.60;118.99
65559;DHT22;52203;51.998;5.140;2023-08-21T11:34:53;21.80;118.99
65559;DHT22;52203;51.998;5.140;2023-08-21T11:37:26;21.84;118.99
65559;DHT22;52203;51.998;5.140;2023-08-21T11:39:52;21.77;118.99
65559;DHT22;52203;51.998;5.140;2023-08-21T11:42:20;21.83;118.99
65559;DHT22;52203;51.998;5.140;2023-08-21T11:44:52;21.87;118.99
65559;DHT22;52203;51.998;5.140;2023-08-21T11:47:22;21.84;118.99
65559;DHT22;52203;51.998;5.140;2023-08-21T11:49:49;21.90;118.99
65559;DHT22;52203;51.998;5.140;2023-08-21T11:52:22;22.05;118.99
65559;DHT22;52203;51.998;5.140;2023-08-21T11:54:51;22.21;118.99
65559;DHT22;52203;51.998;5.140;2023-08-21T11:57:18;22.07;118.99
65559;DHT22;52203;51.998;5.140;2023-08-21T11:59:53;22.07;118.99
65559;DHT22;52203;51.998;5.140;2023-08-21T12:02:26;21.92;118.99
65559;DHT22;52203;51.998;5.140;2023-08-21T12:05:03;21.72;118.99
65559;DHT22;52203;51.998;5.140;2023-08-21T12:07:30;21.91;118.99
65559;DHT22;52203;51.998;5.140;2023-08-21T12:09:56;22.01;118.99
65559;DHT22;52203;51.998;5.140;2023-08-21T12:12:22;21.97;118.99
65559;DHT22;52203;51.998;5.140;2023-08-21T12:14:47;21.94;118.99
65559;DHT22;52203;51.998;5.140;2023-08-21T12:17:13;22.02;118.99
65559;DHT22;52203;51.998;5.140;2023-08-21T12:19:38;21.99;118.99
65559;DHT22;52203;51.998;5.140;2023-08-21T12:22:04;21.99;118.99
65559;DHT22;52203;51.998;5.140;2023-08-21T12:24:30;22.14;118.99
65559;DHT22;52203;51.998;5.140;2023-08-21T12:26:56;22.17;118.99
65559;DHT22;52203;51.998;5.140;2023-08-21T12:29:22;22.35;118.99
65559;DHT22;52203;51.998;5.140;2023-08-21T12:31:47;22.42;118.99
65559;DHT22;52203;51.998;5.140;2023-08-21T12:34:13;22.48;118.99
65559;DHT22;52203;51.998;5.140;2023-08-21T12:36:39;22.49;118.99
65559;DHT22;52203;51.998;5.140;2023-08-21T12:39:05;22.56;118.99
65559;DHT22;52203;51.998;5.140;2023-08-21T12:41:32;22.49;118.99
65559;DHT22;52203;51.998;5.140;2023-08-21T12:44:01;22.29;118.99
65559;DHT22;52203;51.998;5.140;2023-08-21T12:46:28;22.09;118.99
65559;DHT22;52203;51.998;5.140;2023-08-21T12:48:55;22.04;118.99
65559;DHT22;52203;51.998;5.140;2023-08-21T12:51:21;22.02;118.99
65559;DHT22;52203;51.998;5.140;2023-08-21T12:53:47;21.81;118.99
65559;DHT22;52203;51.998;5.140;2023-08-21T12:56:12;21.59;118.99
65559;DHT22;52203;51.998;5.140;2023-08-21T12:58:38;21.49;118.99
65559;DHT22;52203;51.998;5.140;2023-08-21T13:01:03;21.31;118.99
65559;DHT22;52203;51.998;5.140;2023-08-21T13:03:30;21.13;118.99
65559;DHT22;52203;51.998;5.140;2023-08-21T13:05:56;20.98;118.99
65559;DHT22;52203;51.998;5.140;2023-08-21T13:08:21;20.77;118.99
65559;DHT22;52203;51.998;5.140;2023-08-21T13:10:47;20.68;118.99
65559;DHT22;52203;51.998;5.140;2023-08-21T13:13:16;20.88;118.99
65559;DHT22;52203;51.998;5.140;2023-08-21T13:15:42;21.04;118.99
65559;DHT22;52203;51.998;5.140;2023-08-21T13:18:10;21.15;118.99
65559;DHT22;52203;51.998;5.140;2023-08-21T13:20:36;21.28;118.99
65559;DHT22;52203;51.998;5.140;2023-08-21T13:23:02;21.49;118.99
65559;DHT22;52203;51.998;5.140;2023-08-21T13:25:28;21.72;118.99
65559;DHT22;52203;51.998;5.140;2023-08-21T13:27:54;21.95;118.99
65559;DHT22;52203;51.998;5.140;2023-08-21T13:30:20;22.08;118.99
65559;DHT22;52203;51.998;5.140;2023-08-21T13:32:46;22.22;118.99
65559;DHT22;52203;51.998;5.140;2023-08-21T13:35:11;22.32;118.99
65559;DHT22;52203;51.998;5.140;2023-08-21T13:37:38;22.44;118.99
65559;DHT22;52203;51.998;5.140;2023-08-21T13:40:04;22.41;118.99
65559;DHT22;52203;51.998;5.140;2023-08-21T13:42:40;22.12;118.99
65559;DHT22;52203;51.998;5.140;2023-08-21T13:47:36;22.05;118.99
65559;DHT22;52203;51.998;5.140;2023-08-21T13:50:03;21.96;118.99
65559;DHT22;52203;51.998;5.140;2023-08-21T13:52:28;21.93;118.99
65559;DHT22;52203;51.998;5.140;2023-08-21T13:54:54;21.74;118.99
65559;DHT22;52203;51.998;5.140;2023-08-21T13:57:19;21.77;118.99
65559;DHT22;52203;51.998;5.140;2023-08-21T13:59:45;21.68;118.99
65559;DHT22;52203;51.998;5.140;2023-08-21T14:02:11;21.38;118.99
65559;DHT22;52203;51.998;5.140;2023-08-21T14:04:36;21.08;118.99
65559;DHT22;52203;51.998;5.140;2023-08-21T14:07:02;20.89;118.99
65559;DHT22;52203;51.998;5.140;2023-08-21T14:09:28;20.73;118.99
65559;DHT22;52203;51.998;5.140;2023-08-21T14:11:53;20.74;118.99
65559;DHT22;52203;51.998;5.140;2023-08-21T14:14:19;20.75;118.99
65559;DHT22;52203;51.998;5.140;2023-08-21T14:16:44;20.87;118.99
65559;DHT22;52203;51.998;5.140;2023-08-21T14:19:10;20.86;118.99
65559;DHT22;52203;51.998;5.140;2023-08-21T14:21:35;20.71;118.99
65559;DHT22;52203;51.998;5.140;2023-08-21T14:24:01;20.62;118.99
65559;DHT22;52203;51.998;5.140;2023-08-21T14:26:26;20.60;118.99
65559;DHT22;52203;51.998;5.140;2023-08-21T14:28:52;20.53;118.99
65559;DHT22;52203;51.998;5.140;2023-08-21T14:31:17;20.44;118.99
65559;DHT22;52203;51.998;5.140;2023-08-21T14:33:43;20.33;118.99
65559;DHT22;52203;51.998;5.140;2023-08-21T14:36:09;20.25;118.99
65559;DHT22;52203;51.998;5.140;2023-08-21T14:38:34;20.22;118.99
65559;DHT22;52203;51.998;5.140;2023-08-21T14:41:00;20.21;118.99
65559;DHT22;52203;51.998;5.140;2023-08-21T14:43:25;20.21;118.99
65559;DHT22;52203;51.998;5.140;2023-08-21T14:45:51;20.19;118.99
65559;DHT22;52203;51.998;5.140;2023-08-21T14:48:17;20.21;118.99
65559;DHT22;52203;51.998;5.140;2023-08-21T14:50:43;20.22;118.99
65559;DHT22;52203;51.998;5.140;2023-08-21T14:53:09;20.21;118.99
65559;DHT22;52203;51.998;5.140;2023-08-21T14:55:34;20.17;118.99
65559;DHT22;52203;51.998;5.140;2023-08-21T14:58:00;20.18;118.99
65559;DHT22;52203;51.998;5.140;2023-08-21T15:00:31;20.17;118.99
65559;DHT22;52203;51.998;5.140;2023-08-21T15:02:57;20.14;118.99
65559;DHT22;52203;51.998;5.140;2023-08-21T15:05:22;20.02;118.99
65559;DHT22;52203;51.998;5.140;2023-08-21T15:07:48;19.96;118.99
65559;DHT22;52203;51.998;5.140;2023-08-21T15:10:13;19.92;118.99
65559;DHT22;52203;51.998;5.140;2023-08-21T15:12:39;19.86;118.99
65559;DHT22;52203;51.998;5.140;2023-08-21T15:15:05;19.77;118.99
65559;DHT22;52203;51.998;5.140;2023-08-21T15:17:31;19.74;118.99
65559;DHT22;52203;51.998;5.140;2023-08-21T15:19:56;19.72;118.99
65559;DHT22;52203;51.998;5.140;2023-08-21T15:22:22;19.68;118.99